Time;durP1;ratioP1;P1;durP2;ratioP2;P2;SDS_P1;SDS_P2;PMS_P1;PMS_P2;Temp;Humidity;BMP_temperature;BMP_pressure;BME280_temperature;BME280_humidity;BME280_pressure;Samples;Min_cycle;Max_cycle;Signal;HPM_P1;HPM_P2
2023/12/19 00:04:10;;;;;;;1999.90;999.90;;;7.30;99.90;;;;;;5033256;28;20024;-70
2023/12/19 00:06:35;;;;;;;1999.90;999.90;;;7.20;99.90;;;;;;5034110;28;20033;-70
2023/12/19 00:09:01;;;;;;;1999.90;999.90;;;7.30;99.90;;;;;;5034386;28;20034;-71
2023/12/19 00:11:27;;;;;;;1999.90;999.90;;;7.30;99.90;;;;;;5028793;28;20013;-70
2023/12/19 00:13:52;;;;;;;1999.90;999.90;;;7.30;99.90;;;;;;5034894;28;20048;-70
2023/12/19 00:16:18;;;;;;;1999.90;999.90;;;7.30;99.90;;;;;;5029387;28;20033;-70
2023/12/19 00:18:44;;;;;;;1999.90;999.90;;;7.30;99.90;;;;;;5027652;28;20030;-70
2023/12/19 00:21:09;;;;;;;1999.90;999.90;;;7.30;99.90;;;;;;5033115;28;20025;-70
2023/12/19 00:23:35;;;;;;;1999.90;999.90;;;7.30;99.90;;;;;;5035229;28;20025;-71
2023/12/19 00:26:01;;;;;;;1999.90;999.90;;;7.30;99.90;;;;;;5033977;28;20031;-71
2023/12/19 00:28:27;;;;;;;1999.90;999.90;;;7.30;99.90;;;;;;5034855;28;20044;-71
2023/12/19 00:30:55;;;;;;;1999.90;999.90;;;7.30;99.90;;;;;;5034181;28;20025;-70
2023/12/19 00:33:22;;;;;;;1999.90;999.90;;;7.30;99.90;;;;;;5034466;28;20048;-71
2023/12/19 00:35:48;;;;;;;1999.90;999.90;;;7.30;99.90;;;;;;5034799;28;20057;-70
2023/12/19 00:38:13;;;;;;;1999.90;999.90;;;7.30;99.90;;;;;;5027697;28;20057;-70
2023/12/19 00:40:39;;;;;;;1999.90;999.90;;;7.30;99.90;;;;;;5034000;28;20029;-71
2023/12/19 00:43:05;;;;;;;1999.90;999.90;;;7.30;99.90;;;;;;5034091;28;20033;-71
2023/12/19 00:45:30;;;;;;;1999.90;999.90;;;7.30;99.90;;;;;;5034403;28;20053;-70
2023/12/19 00:47:56;;;;;;;1999.90;999.90;;;7.30;99.90;;;;;;5032786;28;20033;-71
2023/12/19 00:50:22;;;;;;;1999.90;999.90;;;7.30;99.90;;;;;;5034231;28;20037;-70
2023/12/19 00:52:47;;;;;;;1999.90;999.90;;;7.30;99.90;;;;;;5033544;28;20107;-71
2023/12/19 00:55:13;;;;;;;1999.90;999.90;;;7.20;99.90;;;;;;5033771;28;20037;-71
2023/12/19 00:57:39;;;;;;;1999.90;999.90;;;7.30;99.90;;;;;;5032966;28;20030;-70
2023/12/19 01:00:05;;;;;;;1999.90;999.90;;;7.30;99.90;;;;;;5033848;28;20041;-71
2023/12/19 01:02:31;;;;;;;1999.90;999.90;;;7.30;99.90;;;;;;5033857;28;20072;-71
2023/12/19 01:04:57;;;;;;;1999.90;999.90;;;7.30;99.90;;;;;;5029968;28;20065;-71
2023/12/19 01:07:26;;;;;;;1999.90;999.90;;;7.30;99.90;;;;;;5034181;28;20033;-71
2023/12/19 01:09:52;;;;;;;1999.90;999.90;;;7.30;99.90;;;;;;5027631;28;20438;-71
2023/12/19 01:12:18;;;;;;;1999.90;999.90;;;7.30;99.90;;;;;;5033266;28;20029;-71
2023/12/19 01:14:44;;;;;;;1999.90;999.90;;;7.30;99.90;;;;;;5034021;28;20036;-70
2023/12/19 01:17:10;;;;;;;1999.90;999.90;;;7.30;99.90;;;;;;5032000;28;20348;-70
2023/12/19 01:19:37;;;;;;;1999.90;999.90;;;7.30;99.90;;;;;;5031858;28;20037;-70
2023/12/19 01:22:03;;;;;;;1999.90;999.90;;;7.30;99.90;;;;;;5031168;28;20029;-71
2023/12/19 01:24:29;;;;;;;1999.90;999.90;;;7.30;99.90;;;;;;5030824;28;20100;-70
2023/12/19 01:26:55;;;;;;;1999.90;999.90;;;7.30;99.90;;;;;;5036039;28;20029;-71
2023/12/19 01:29:20;;;;;;;1999.90;999.90;;;7.30;99.90;;;;;;5030774;28;20036;-70
2023/12/19 01:31:46;;;;;;;1999.90;999.90;;;7.30;99.90;;;;;;5027457;28;20410;-71
2023/12/19 01:34:12;;;;;;;1999.90;999.90;;;7.30;99.90;;;;;;5027592;28;20428;-70
2023/12/19 01:36:41;;;;;;;1999.90;999.90;;;7.30;99.90;;;;;;5035069;28;20029;-71
2023/12/19 01:39:08;;;;;;;1999.90;999.90;;;7.30;99.90;;;;;;5024798;28;20368;-71
2023/12/19 01:41:34;;;;;;;1999.90;999.90;;;7.30;99.90;;;;;;5032238;28;20045;-71
2023/12/19 01:44:00;;;;;;;1999.90;999.90;;;7.30;99.90;;;;;;5029922;28;20033;-71
2023/12/19 01:46:26;;;;;;;1999.90;999.90;;;7.40;99.90;;;;;;5024616;28;20025;-71
2023/12/19 01:48:52;;;;;;;1999.90;999.90;;;7.30;99.90;;;;;;5026826;28;20775;-71
2023/12/19 01:51:18;;;;;;;1999.90;999.90;;;7.40;99.90;;;;;;5030960;28;20033;-71
2023/12/19 01:53:45;;;;;;;1999.90;999.90;;;7.30;99.90;;;;;;5034057;28;20432;-71
2023/12/19 01:56:18;;;;;;;1999.90;999.90;;;7.40;99.90;;;;;;5026815;28;20056;-70
2023/12/19 01:58:46;;;;;;;1999.90;999.90;;;7.40;99.90;;;;;;5023926;28;20033;-71
2023/12/19 02:01:12;;;;;;;1999.90;999.90;;;7.40;99.90;;;;;;5026937;28;20329;-71
2023/12/19 02:03:40;;;;;;;1999.90;999.90;;;7.40;99.90;;;;;;5027931;28;20308;-71
2023/12/19 02:06:07;;;;;;;1999.90;999.90;;;7.40;99.90;;;;;;5025227;28;20033;-71
2023/12/19 02:08:35;;;;;;;;;;;7.50;99.90;;;;;;5032901;28;20040;-71
2023/12/19 02:11:01;;;;;;;1999.90;999.90;;;7.50;99.90;;;;;;5028903;28;19913;-71
2023/12/19 02:13:27;;;;;;;1999.90;999.90;;;7.50;99.90;;;;;;5028730;28;20033;-71
2023/12/19 02:15:53;;;;;;;1999.90;999.90;;;7.50;99.90;;;;;;5029958;28;20025;-71
2023/12/19 02:18:20;;;;;;;1999.90;999.90;;;7.50;99.90;;;;;;5033607;28;20033;-71
2023/12/19 02:20:46;;;;;;;1999.90;999.90;;;7.50;99.90;;;;;;5032153;28;20037;-71
2023/12/19 02:23:13;;;;;;;1999.90;999.90;;;7.60;99.90;;;;;;5031320;28;20026;-71
2023/12/19 02:25:39;;;;;;;;;;;7.60;99.90;;;;;;5023289;28;20298;-71
2023/12/19 02:28:05;;;;;;;1999.90;999.90;;;7.60;99.90;;;;;;5032334;28;19964;-70
2023/12/19 02:30:32;;;;;;;1999.90;999.90;;;7.60;99.90;;;;;;5033198;28;20084;-71
2023/12/19 02:32:58;;;;;;;1999.90;999.90;;;7.60;99.90;;;;;;5030278;28;20093;-71
2023/12/19 02:35:24;;;;;;;1999.90;999.90;;;7.60;99.90;;;;;;5029345;28;20022;-71
2023/12/19 02:37:50;;;;;;;1999.90;999.90;;;7.60;99.90;;;;;;5031925;28;20061;-71
2023/12/19 02:40:16;;;;;;;1999.90;999.90;;;7.70;99.90;;;;;;5031962;28;20424;-71
2023/12/19 02:42:42;;;;;;;1999.90;999.90;;;7.60;99.90;;;;;;5032318;28;20052;-70
2023/12/19 02:45:10;;;;;;;1999.90;999.90;;;7.70;99.90;;;;;;5032578;28;20663;-71
2023/12/19 02:47:35;;;;;;;1999.90;999.90;;;7.60;99.90;;;;;;5032809;28;20117;-72
2023/12/19 02:50:01;;;;;;;1999.90;999.90;;;7.60;99.90;;;;;;5032273;28;20104;-71
2023/12/19 02:52:27;;;;;;;1999.90;999.90;;;7.70;99.90;;;;;;5032484;28;20317;-70
2023/12/19 02:54:52;;;;;;;1999.90;999.90;;;7.70;99.90;;;;;;5031618;28;20108;-71
2023/12/19 02:57:18;;;;;;;1999.90;999.90;;;7.70;99.90;;;;;;5031963;28;20076;-70
2023/12/19 02:59:44;;;;;;;1999.90;999.90;;;7.70;99.90;;;;;;5032200;28;20079;-71
2023/12/19 03:02:09;;;;;;;1999.90;999.90;;;7.70;99.90;;;;;;5032740;28;20037;-70
2023/12/19 03:04:35;;;;;;;1999.90;999.90;;;7.70;99.90;;;;;;5034234;28;20036;-71
2023/12/19 03:07:01;;;;;;;1999.90;999.90;;;7.70;99.90;;;;;;5035787;28;20061;-71
2023/12/19 03:09:26;;;;;;;1999.90;999.90;;;7.60;99.90;;;;;;5035792;28;20439;-71
2023/12/19 03:12:18;;;;;;;1999.90;999.90;;;7.70;99.90;;;;;;5031452;28;20411;-71
2023/12/19 03:14:44;;;;;;;1999.90;999.90;;;7.70;99.90;;;;;;5037203;28;20029;-71
2023/12/19 03:17:10;;;;;;;1999.90;999.90;;;7.70;99.90;;;;;;5035726;28;20071;-71
2023/12/19 03:19:36;;;;;;;1999.90;999.90;;;7.70;99.90;;;;;;5046994;28;20033;-71
2023/12/19 03:22:02;;;;;;;1999.90;999.90;;;7.70;99.90;;;;;;5031921;28;20029;-70
2023/12/19 03:24:28;;;;;;;1999.90;999.90;;;7.70;99.90;;;;;;5036039;28;20049;-70
2023/12/19 03:26:54;;;;;;;1999.90;999.90;;;7.70;99.90;;;;;;5036163;28;20026;-70
2023/12/19 03:29:20;;;;;;;1999.90;999.90;;;7.70;99.90;;;;;;5034056;28;20048;-70
2023/12/19 03:31:45;;;;;;;1999.90;999.90;;;7.70;99.90;;;;;;5035347;28;20100;-71
2023/12/19 03:34:11;;;;;;;1999.90;999.90;;;7.70;99.90;;;;;;5035552;28;20021;-71
2023/12/19 03:36:37;;;;;;;1999.90;999.90;;;7.70;99.90;;;;;;5034331;28;20025;-71
2023/12/19 03:39:03;;;;;;;1999.90;999.90;;;7.70;99.90;;;;;;5032631;28;20604;-70
2023/12/19 03:41:29;;;;;;;1999.90;999.90;;;7.70;99.90;;;;;;5035613;28;20084;-71
2023/12/19 03:43:55;;;;;;;1999.90;999.90;;;7.70;99.90;;;;;;5034240;28;20043;-71
2023/12/19 03:46:21;;;;;;;1999.90;999.90;;;7.70;99.90;;;;;;5035586;28;20037;-71
2023/12/19 03:48:46;;;;;;;1999.90;999.90;;;7.70;99.90;;;;;;5035442;28;20029;-71
2023/12/19 03:51:12;;;;;;;1999.90;999.90;;;7.70;99.90;;;;;;5035316;28;20029;-71
2023/12/19 03:53:38;;;;;;;1999.90;999.90;;;7.70;99.90;;;;;;5034363;28;20038;-71
2023/12/19 03:56:05;;;;;;;1999.90;999.90;;;7.70;99.90;;;;;;5027309;28;20025;-71
2023/12/19 03:58:30;;;;;;;1999.90;999.90;;;7.70;99.90;;;;;;5032613;28;20033;-71
2023/12/19 04:00:57;;;;;;;1999.90;999.90;;;7.70;99.90;;;;;;5034736;28;20025;-71
2023/12/19 04:03:22;;;;;;;1999.90;999.90;;;7.80;99.90;;;;;;5035248;28;20417;-71
2023/12/19 04:05:48;;;;;;;1999.90;999.90;;;7.80;99.90;;;;;;5035045;28;20025;-71
2023/12/19 04:08:14;;;;;;;1999.90;999.90;;;7.80;99.90;;;;;;5034832;28;20099;-72
2023/12/19 04:10:39;;;;;;;1999.90;999.90;;;7.80;99.90;;;;;;5033585;28;20022;-71
2023/12/19 04:13:05;;;;;;;1999.90;999.90;;;7.90;99.90;;;;;;5032811;28;20037;-71
2023/12/19 04:15:31;;;;;;;1999.90;999.90;;;7.90;99.90;;;;;;5034580;28;20037;-71
2023/12/19 04:17:56;;;;;;;1999.90;999.90;;;7.90;99.90;;;;;;5034378;28;20037;-71
2023/12/19 04:20:22;;;;;;;1999.90;999.90;;;7.90;99.90;;;;;;5034928;28;20033;-71
2023/12/19 04:22:48;;;;;;;1999.90;999.90;;;7.90;99.90;;;;;;5034696;28;20044;-71
2023/12/19 04:25:13;;;;;;;1999.90;999.90;;;7.90;99.90;;;;;;5034013;28;20033;-71
2023/12/19 04:27:39;;;;;;;1999.90;999.90;;;7.90;99.90;;;;;;5034278;28;20029;-71
2023/12/19 04:30:05;;;;;;;1999.90;999.90;;;7.90;99.90;;;;;;5033526;28;20119;-71
2023/12/19 04:32:31;;;;;;;1999.90;999.90;;;7.90;99.90;;;;;;5034262;28;20033;-71
2023/12/19 04:34:57;;;;;;;1999.90;999.90;;;7.90;99.90;;;;;;5034288;28;20037;-71
2023/12/19 04:37:22;;;;;;;1999.90;999.90;;;7.90;99.90;;;;;;5034777;28;20033;-71
2023/12/19 04:39:48;;;;;;;1999.90;999.90;;;8.00;99.90;;;;;;5034093;28;20029;-71
2023/12/19 04:42:17;;;;;;;1999.90;999.90;;;7.90;99.90;;;;;;5034576;28;20355;-71
2023/12/19 04:44:47;;;;;;;1999.90;999.90;;;7.90;99.90;;;;;;5029097;28;20044;-71
2023/12/19 04:47:13;;;;;;;1999.90;999.90;;;7.90;99.90;;;;;;5034619;28;20324;-71
2023/12/19 04:49:39;;;;;;;1999.90;999.90;;;7.90;99.90;;;;;;5034296;28;20038;-71
2023/12/19 04:52:05;;;;;;;1999.90;999.90;;;8.00;99.90;;;;;;5034306;28;20344;-71
2023/12/19 04:54:31;;;;;;;1999.90;999.90;;;7.90;99.90;;;;;;5034550;28;20687;-71
2023/12/19 04:56:56;;;;;;;1999.90;999.90;;;8.00;99.90;;;;;;5028950;28;20033;-71
2023/12/19 04:59:22;;;;;;;1999.90;999.90;;;8.00;99.90;;;;;;5030876;28;20029;-71
2023/12/19 05:01:48;;;;;;;1999.90;999.90;;;8.00;99.90;;;;;;5033577;28;20104;-71
2023/12/19 05:04:13;;;;;;;1999.90;999.90;;;8.00;99.90;;;;;;5034325;28;20034;-71
2023/12/19 05:06:39;;;;;;;1999.90;999.90;;;8.00;99.90;;;;;;5033731;28;20025;-71
2023/12/19 05:09:05;;;;;;;1999.90;999.90;;;8.10;99.90;;;;;;5032547;28;20030;-71
2023/12/19 05:11:30;;;;;;;1999.90;999.90;;;8.10;99.90;;;;;;5034326;28;20104;-71
2023/12/19 05:13:56;;;;;;;1999.90;999.90;;;8.10;99.90;;;;;;5032663;28;20105;-71
2023/12/19 05:16:22;;;;;;;1999.90;999.90;;;8.10;99.90;;;;;;5033827;28;20017;-71
2023/12/19 05:18:48;;;;;;;1999.90;999.90;;;8.10;99.90;;;;;;5032003;28;20044;-71
2023/12/19 05:21:14;;;;;;;1999.90;999.90;;;8.20;99.90;;;;;;5034176;28;20033;-71
2023/12/19 05:23:40;;;;;;;1999.90;999.90;;;8.20;99.90;;;;;;5021285;28;20413;-71
2023/12/19 05:26:08;;;;;;;1999.90;999.90;;;8.20;99.90;;;;;;5028685;28;20352;-71
2023/12/19 05:28:38;;;;;;;1999.90;999.90;;;8.20;99.90;;;;;;5035375;28;20436;-71
2023/12/19 05:31:04;;;;;;;1999.90;999.90;;;8.20;99.90;;;;;;5032402;28;20120;-71
2023/12/19 05:33:31;;;;;;;1999.90;999.90;;;8.30;99.90;;;;;;5030223;28;20435;-70
2023/12/19 05:35:57;;;;;;;1999.90;999.90;;;8.30;99.90;;;;;;5033488;28;20021;-71
2023/12/19 05:38:23;;;;;;;1999.90;999.90;;;8.30;99.90;;;;;;5031358;28;20021;-71
2023/12/19 05:40:51;;;;;;;1999.90;999.90;;;8.30;99.90;;;;;;5033259;28;20124;-71
2023/12/19 05:43:17;;;;;;;1999.90;999.90;;;8.30;99.90;;;;;;5032972;28;20022;-71
2023/12/19 05:45:43;;;;;;;1999.90;999.90;;;8.30;99.90;;;;;;5033612;28;20029;-71
2023/12/19 05:48:08;;;;;;;1999.90;999.90;;;8.30;99.90;;;;;;5031679;28;20028;-71
2023/12/19 05:50:34;;;;;;;1999.90;999.90;;;8.30;99.90;;;;;;5033500;28;20055;-71
2023/12/19 05:53:00;;;;;;;1999.90;999.90;;;8.30;99.90;;;;;;5025115;28;20025;-71
2023/12/19 05:55:26;;;;;;;1999.90;999.90;;;8.40;99.90;;;;;;5027377;28;20021;-71
2023/12/19 05:57:52;;;;;;;1999.90;999.90;;;8.40;99.90;;;;;;5027536;28;20030;-71
2023/12/19 06:00:18;;;;;;;1999.90;999.90;;;8.40;99.90;;;;;;5032874;28;20036;-71
2023/12/19 06:02:44;;;;;;;1999.90;999.90;;;8.40;99.90;;;;;;5032292;28;20034;-71
2023/12/19 06:05:11;;;;;;;1999.90;999.90;;;8.40;99.90;;;;;;5032453;28;20038;-71
2023/12/19 06:07:37;;;;;;;;;;;8.40;99.90;;;;;;5034163;28;20053;-71
2023/12/19 06:10:08;;;;;;;1999.90;999.90;;;8.40;99.90;;;;;;5026055;28;19920;-71
2023/12/19 06:12:34;;;;;;;1999.90;999.90;;;8.40;99.90;;;;;;5031877;28;20320;-71
2023/12/19 06:14:59;;;;;;;1999.90;999.90;;;8.50;99.90;;;;;;5030445;28;20029;-71
2023/12/19 06:17:25;;;;;;;1999.90;999.90;;;8.50;99.90;;;;;;5030988;28;20362;-71
2023/12/19 06:19:51;;;;;;;1999.90;999.90;;;8.50;99.90;;;;;;5031417;28;20057;-71
2023/12/19 06:22:17;;;;;;;1999.90;999.90;;;8.50;99.90;;;;;;5032877;28;20040;-71
2023/12/19 06:24:42;;;;;;;1999.90;999.90;;;8.50;99.90;;;;;;5042203;28;20071;-71
2023/12/19 06:27:08;;;;;;;1999.90;999.90;;;8.60;99.90;;;;;;5030691;28;20048;-71
2023/12/19 06:29:34;;;;;;;1999.90;999.90;;;8.60;99.90;;;;;;5036403;28;20440;-71
2023/12/19 06:32:00;;;;;;;1999.90;999.90;;;8.60;99.90;;;;;;5033265;28;20108;-71
2023/12/19 06:34:28;;;;;;;1999.90;999.90;;;8.60;99.90;;;;;;5032087;28;20104;-71
2023/12/19 06:36:54;;;;;;;1999.90;999.90;;;8.60;99.90;;;;;;5030929;28;20036;-71
2023/12/19 06:39:20;;;;;;;1999.90;999.90;;;8.60;99.90;;;;;;5032363;28;20052;-70
2023/12/19 06:41:45;;;;;;;1999.90;999.90;;;8.70;99.90;;;;;;5039894;28;20045;-70
2023/12/19 06:44:12;;;;;;;1999.90;999.90;;;8.70;99.90;;;;;;5036312;28;20119;-71
2023/12/19 06:46:38;;;;;;;1999.90;999.90;;;8.70;99.90;;;;;;5034048;28;20091;-71
2023/12/19 06:49:04;;;;;;;1999.90;999.90;;;8.70;99.90;;;;;;5034895;28;20029;-71
2023/12/19 06:51:31;;;;;;;1999.90;999.90;;;8.70;99.90;;;;;;5037643;28;20415;-71
2023/12/19 06:53:57;;;;;;;1999.90;999.90;;;8.70;99.90;;;;;;5032256;28;20108;-71
2023/12/19 06:56:27;;;;;;;1999.90;999.90;;;8.70;99.90;;;;;;5026788;28;20396;-71
2023/12/19 06:58:53;;;;;;;1999.90;999.90;;;8.70;99.90;;;;;;5031765;28;20026;-71
2023/12/19 07:01:18;;;;;;;1999.90;999.90;;;8.70;99.90;;;;;;5032275;28;20482;-72
2023/12/19 07:03:44;;;;;;;1999.90;999.90;;;8.70;99.90;;;;;;5039373;28;20120;-71
2023/12/19 07:06:16;;;;;;;1999.90;999.90;;;8.70;99.90;;;;;;5035197;28;20041;-71
2023/12/19 07:08:42;;;;;;;1999.90;999.90;;;8.70;99.90;;;;;;5036440;28;20041;-71
2023/12/19 07:11:09;;;;;;;1999.90;999.90;;;8.70;99.90;;;;;;5031196;28;20030;-71
2023/12/19 07:13:35;;;;;;;1999.90;999.90;;;8.60;99.90;;;;;;5028897;28;20257;-71
2023/12/19 07:16:02;;;;;;;1999.90;999.90;;;8.70;99.90;;;;;;5036938;28;20176;-71
2023/12/19 07:18:28;;;;;;;1999.90;999.90;;;8.60;99.90;;;;;;5035377;28;20079;-71
2023/12/19 07:20:54;;;;;;;1999.90;999.90;;;8.60;99.90;;;;;;5033196;28;20052;-71
2023/12/19 07:23:19;;;;;;;1999.90;999.90;;;8.60;99.90;;;;;;5036621;28;20101;-70
2023/12/19 07:25:45;;;;;;;1999.90;999.90;;;8.60;99.90;;;;;;5030779;28;20021;-71
2023/12/19 07:28:11;;;;;;;1999.90;999.90;;;8.60;99.90;;;;;;5046729;28;20037;-71
2023/12/19 07:30:37;;;;;;;1999.90;999.90;;;8.60;99.90;;;;;;5047445;28;20021;-70
2023/12/19 07:33:04;;;;;;;1999.90;999.90;;;8.60;99.90;;;;;;5040860;28;20128;-70
2023/12/19 07:35:30;;;;;;;1999.90;999.90;;;8.70;99.90;;;;;;5038784;28;20024;-71
2023/12/19 07:37:55;;;;;;;1999.90;999.90;;;8.70;99.90;;;;;;5049213;28;20037;-71
2023/12/19 07:40:21;;;;;;;1999.90;999.90;;;8.70;99.90;;;;;;5049248;28;20079;-71
2023/12/19 07:42:47;;;;;;;1999.90;999.90;;;8.70;99.90;;;;;;5037282;28;20045;-71
2023/12/19 07:45:13;;;;;;;1999.90;999.90;;;8.70;99.90;;;;;;5045201;28;20107;-71
2023/12/19 07:47:39;;;;;;;1999.90;999.90;;;8.60;99.90;;;;;;5027088;28;20361;-71
2023/12/19 07:50:10;;;;;;;1999.90;999.90;;;8.70;99.90;;;;;;5023887;28;20034;-72
2023/12/19 07:52:36;;;;;;;1999.90;999.90;;;8.60;99.90;;;;;;5029440;28;20021;-71
2023/12/19 07:55:04;;;;;;;1999.90;999.90;;;8.70;99.90;;;;;;5045862;28;20366;-71
2023/12/19 07:57:29;;;;;;;1999.90;999.90;;;8.70;99.90;;;;;;5040765;28;20356;-71
2023/12/19 07:59:55;;;;;;;1999.90;999.90;;;8.70;99.90;;;;;;5027713;28;20033;-71
2023/12/19 08:02:21;;;;;;;1999.90;999.90;;;8.70;99.90;;;;;;5023770;28;20362;-71
2023/12/19 08:04:47;;;;;;;1999.90;999.90;;;8.60;99.90;;;;;;5036215;28;20063;-71
2023/12/19 08:07:12;;;;;;;1999.90;999.90;;;8.60;99.90;;;;;;5042733;28;20345;-71
2023/12/19 08:09:38;;;;;;;1999.90;999.90;;;8.60;99.90;;;;;;5043014;28;20048;-72
2023/12/19 08:12:04;;;;;;;1999.90;999.90;;;8.60;99.90;;;;;;5032010;28;20040;-71
2023/12/19 08:14:30;;;;;;;1999.90;999.90;;;8.60;99.90;;;;;;5040316;28;20095;-71
2023/12/19 08:16:55;;;;;;;1999.90;999.90;;;8.50;99.90;;;;;;5036266;28;20074;-71
2023/12/19 08:19:21;;;;;;;1999.90;999.90;;;8.50;99.90;;;;;;5033149;28;20336;-71
2023/12/19 08:21:51;;;;;;;1999.90;999.90;;;8.50;99.90;;;;;;5039565;28;20116;-71
2023/12/19 08:24:16;;;;;;;1999.90;999.90;;;8.50;99.90;;;;;;5030620;28;20036;-71
2023/12/19 08:26:49;;;;;;;1999.90;999.90;;;8.40;99.90;;;;;;5035506;28;20026;-71
2023/12/19 08:29:15;;;;;;;1999.90;999.90;;;8.40;99.90;;;;;;5028728;28;20163;-71
2023/12/19 08:31:41;;;;;;;1999.90;999.90;;;8.40;99.90;;;;;;5037129;28;20026;-71
2023/12/19 08:34:07;;;;;;;1999.90;999.90;;;8.50;99.90;;;;;;5026760;28;20022;-71
2023/12/19 08:36:33;;;;;;;1999.90;999.90;;;8.40;99.90;;;;;;5031456;28;20048;-71
2023/12/19 08:38:59;;;;;;;1999.90;999.90;;;8.40;99.90;;;;;;5038427;28;20265;-71
2023/12/19 08:41:25;;;;;;;1999.90;999.90;;;8.40;99.90;;;;;;5028000;28;20057;-71
2023/12/19 08:43:51;;;;;;;1999.90;999.90;;;8.40;99.90;;;;;;5028107;28;20026;-71
2023/12/19 08:46:20;;;;;;;1999.90;999.90;;;8.40;99.90;;;;;;5029445;28;20124;-71
2023/12/19 08:48:51;;;;;;;1999.90;999.90;;;8.40;99.90;;;;;;5027649;28;20111;-72
2023/12/19 08:51:17;;;;;;;1999.90;999.90;;;8.40;99.90;;;;;;5023700;28;20068;-71
2023/12/19 08:53:43;;;;;;;1999.90;999.90;;;8.40;99.90;;;;;;5025151;28;20053;-71
2023/12/19 08:56:09;;;;;;;1999.90;999.90;;;8.40;99.90;;;;;;5033785;28;20025;-71
2023/12/19 08:58:34;;;;;;;1999.90;999.90;;;8.40;99.90;;;;;;5031437;28;20079;-71
2023/12/19 09:01:00;;;;;;;1999.90;999.90;;;8.40;99.90;;;;;;5036699;28;20018;-71
2023/12/19 09:03:26;;;;;;;1999.90;999.90;;;8.40;99.90;;;;;;5034779;28;20149;-71
2023/12/19 09:05:51;;;;;;;1999.90;999.90;;;8.40;99.90;;;;;;5031124;28;20055;-71
2023/12/19 09:08:17;;;;;;;1999.90;999.90;;;8.40;99.90;;;;;;5029647;28;20040;-71
2023/12/19 09:10:43;;;;;;;1999.90;999.90;;;8.40;99.90;;;;;;5036274;28;20417;-72
2023/12/19 09:13:09;;;;;;;1999.90;999.90;;;8.40;99.90;;;;;;5028682;28;20985;-71
2023/12/19 09:15:37;;;;;;;1999.90;999.90;;;8.50;99.90;;;;;;5036212;28;20092;-71
2023/12/19 09:18:03;;;;;;;1999.90;999.90;;;8.50;99.90;;;;;;5032830;28;20120;-71
2023/12/19 09:20:30;;;;;;;1999.90;999.90;;;8.50;99.90;;;;;;5037969;28;20060;-71
2023/12/19 09:22:56;;;;;;;1999.90;999.90;;;8.50;99.90;;;;;;5035783;28;20033;-71
2023/12/19 09:25:21;;;;;;;1999.90;999.90;;;8.50;99.90;;;;;;5035580;28;20048;-71
2023/12/19 09:27:48;;;;;;;1999.90;999.90;;;8.50;99.90;;;;;;5030877;28;20029;-71
2023/12/19 09:30:17;;;;;;;1999.90;999.90;;;8.50;99.90;;;;;;5031366;28;20017;-71
2023/12/19 09:32:43;;;;;;;1999.90;999.90;;;8.50;99.90;;;;;;5030059;28;20034;-71
2023/12/19 09:35:12;;;;;;;1999.90;999.90;;;8.50;99.90;;;;;;5037995;28;20174;-71
2023/12/19 09:37:38;;;;;;;1999.90;999.90;;;8.60;99.90;;;;;;5031494;28;20274;-71
2023/12/19 09:40:17;;;;;;;1999.90;999.90;;;8.60;99.90;;;;;;5037558;28;20021;-71
2023/12/19 09:42:43;;;;;;;1999.90;999.90;;;8.60;99.90;;;;;;5036217;28;20115;-71
2023/12/19 09:45:09;;;;;;;1999.90;999.90;;;8.60;99.90;;;;;;5032721;28;20021;-73
2023/12/19 09:47:40;;;;;;;1999.90;999.90;;;8.60;99.90;;;;;;5035418;28;20519;-71
2023/12/19 09:50:14;;;;;;;1999.90;999.90;;;8.70;99.90;;;;;;5031514;28;20438;-71
2023/12/19 09:52:46;;;;;;;1999.90;999.90;;;8.70;99.90;;;;;;5035676;28;20021;-71
2023/12/19 09:55:12;;;;;;;1999.90;999.90;;;8.70;99.90;;;;;;5032598;28;20026;-71
2023/12/19 09:57:38;;;;;;;1999.90;999.90;;;8.70;99.90;;;;;;5031244;28;20492;-71
2023/12/19 10:00:08;;;;;;;1999.90;999.90;;;8.70;99.90;;;;;;5021211;28;20029;-71
2023/12/19 10:02:34;;;;;;;1999.90;999.90;;;8.70;99.90;;;;;;5027492;28;20148;-71
2023/12/19 10:05:00;;;;;;;1999.90;999.90;;;8.80;99.90;;;;;;5035186;28;20447;-71
2023/12/19 10:07:29;;;;;;;1999.90;999.90;;;8.80;99.90;;;;;;5029429;28;20036;-72
2023/12/19 10:09:55;;;;;;;1999.90;999.90;;;8.80;99.90;;;;;;5028477;28;20030;-71
2023/12/19 10:12:21;;;;;;;1999.90;999.90;;;8.80;99.90;;;;;;5029235;28;20021;-71
2023/12/19 10:14:47;;;;;;;1999.90;999.90;;;8.90;99.90;;;;;;5033742;28;20037;-71
2023/12/19 10:17:21;;;;;;;1999.90;999.90;;;8.90;99.90;;;;;;5035752;28;20029;-71
2023/12/19 10:19:47;;;;;;;1999.90;999.90;;;8.90;99.90;;;;;;5039024;28;20017;-72
2023/12/19 10:22:19;;;;;;;1999.90;999.90;;;9.00;99.90;;;;;;5028583;28;20037;-71
2023/12/19 10:24:45;;;;;;;1999.90;999.90;;;9.00;99.90;;;;;;5034038;28;20620;-71
2023/12/19 10:27:11;;;;;;;1999.90;999.90;;;9.00;99.90;;;;;;5030936;28;20107;-71
2023/12/19 10:29:37;;;;;;;1999.90;999.90;;;9.00;99.90;;;;;;5027590;28;20328;-71
2023/12/19 10:32:21;;;;;;;1999.90;999.90;;;9.10;99.90;;;;;;5029166;28;20069;-71
2023/12/19 10:34:57;;;;;;;1999.90;999.90;;;9.10;99.90;;;;;;5035321;28;20083;-72
2023/12/19 10:37:27;;;;;;;1999.90;999.90;;;9.10;99.90;;;;;;5044887;28;20391;-71
2023/12/19 10:40:09;;;;;;;1999.90;999.90;;;9.20;99.90;;;;;;5041835;28;20061;-71
2023/12/19 10:42:36;;;;;;;1999.90;999.90;;;9.20;99.90;;;;;;5026955;28;20061;-71
2023/12/19 10:45:04;;;;;;;1999.90;999.90;;;9.20;99.90;;;;;;5026759;28;20432;-71
2023/12/19 10:47:30;;;;;;;1999.90;999.90;;;9.20;99.90;;;;;;5031558;28;20044;-71
2023/12/19 10:49:56;;;;;;;1999.90;999.90;;;9.20;99.90;;;;;;5038580;28;20025;-71
2023/12/19 10:52:25;;;;;;;1999.90;999.90;;;9.20;99.90;;;;;;5036070;28;20026;-71
2023/12/19 10:55:00;;;;;;;1999.90;999.90;;;9.20;99.90;;;;;;5033131;28;20070;-71
2023/12/19 10:57:32;;;;;;;1999.90;999.90;;;9.20;99.90;;;;;;5024730;28;20035;-71
2023/12/19 11:00:17;;;;;;;1999.90;999.90;;;9.20;99.90;;;;;;5026855;28;20329;-71
2023/12/19 11:03:13;;;;;;;1999.90;999.90;;;9.20;99.90;;;;;;5029173;28;20021;-71
2023/12/19 11:05:46;;;;;;;1999.90;999.90;;;9.20;99.90;;;;;;5032956;28;20056;-71
2023/12/19 11:08:17;;;;;;;1999.90;999.90;;;9.20;99.90;;;;;;5034756;28;20048;-71
2023/12/19 11:10:49;;;;;;;1999.90;999.90;;;9.20;99.90;;;;;;5037260;28;20025;-71
2023/12/19 11:13:16;;;;;;;1999.90;999.90;;;9.20;99.90;;;;;;5034124;28;20323;-71
2023/12/19 11:15:46;;;;;;;;;;;9.20;99.90;;;;;;5035384;28;20405;-71
2023/12/19 11:18:12;;;;;;;1999.90;999.90;;;9.20;99.90;;;;;;5033294;28;20323;-71
2023/12/19 11:20:52;;;;;;;1999.90;999.90;;;9.30;99.90;;;;;;5034947;28;20041;-71
2023/12/19 11:23:17;;;;;;;1999.90;999.90;;;9.20;99.90;;;;;;5034994;28;20039;-71
2023/12/19 11:26:07;;;;;;;1999.90;999.90;;;9.30;99.90;;;;;;5033867;28;20037;-71
2023/12/19 11:28:36;;;;;;;1999.90;999.90;;;9.30;99.90;;;;;;5023699;28;20033;-71
2023/12/19 11:31:03;;;;;;;1999.90;999.90;;;9.40;99.90;;;;;;5042874;28;20025;-71
2023/12/19 11:33:30;;;;;;;1999.90;999.90;;;9.40;99.90;;;;;;5029112;28;20021;-71
2023/12/19 11:35:56;;;;;;;1999.90;999.90;;;9.40;99.90;;;;;;5031441;28;20344;-72
2023/12/19 11:38:26;;;;;;;1999.90;999.90;;;9.40;99.90;;;;;;5024578;28;20080;-71
2023/12/19 11:40:58;;;;;;;1999.90;999.90;;;9.40;99.90;;;;;;5032249;28;20034;-71
2023/12/19 11:43:30;;;;;;;1999.90;999.90;;;9.40;99.90;;;;;;5035209;28;20090;-71
2023/12/19 11:45:56;;;;;;;1999.90;999.90;;;9.30;99.90;;;;;;5038215;28;20029;-71
2023/12/19 11:48:51;;;;;;;1999.90;999.90;;;9.40;99.90;;;;;;5040125;28;20038;-71
2023/12/19 11:51:50;;;;;;;1999.90;999.90;;;9.40;99.90;;;;;;5042335;28;20029;-71
2023/12/19 11:54:16;;;;;;;1999.90;999.90;;;9.40;99.90;;;;;;5041108;28;20077;-71
2023/12/19 11:56:44;;;;;;;1999.90;999.90;;;9.40;99.90;;;;;;5029561;28;20045;-71
2023/12/19 11:59:11;;;;;;;1999.90;999.90;;;9.40;99.90;;;;;;5033059;28;20041;-71
2023/12/19 12:01:41;;;;;;;1999.90;999.90;;;9.40;99.90;;;;;;5032995;28;20028;-71
2023/12/19 12:04:10;;;;;;;1999.90;999.90;;;9.40;99.90;;;;;;5031255;28;20087;-71
2023/12/19 12:06:39;;;;;;;1999.90;999.90;;;9.40;99.90;;;;;;5033228;28;20045;-71
2023/12/19 12:09:05;;;;;;;1999.90;999.90;;;9.40;99.90;;;;;;5035550;28;20037;-71
2023/12/19 12:11:54;;;;;;;1999.90;999.90;;;9.50;99.90;;;;;;5041815;28;20032;-71
2023/12/19 12:14:21;;;;;;;1999.90;999.90;;;9.50;99.90;;;;;;5029145;28;20108;-71